sensor_id;sensor_type;location;lat;lon;timestamp;temperature;humidity
74384;DHT22;62824;52.994;-3.936;2023-04-19T00:00:10;7.80;71.20
74384;DHT22;62824;52.994;-3.936;2023-04-19T00:02:36;8.00;71.40
74384;DHT22;62824;52.994;-3.936;2023-04-19T00:05:02;7.80;73.50
74384;DHT22;62824;52.994;-3.936;2023-04-19T00:07:28;7.70;77.00
74384;DHT22;62824;52.994;-3.936;2023-04-19T00:09:53;7.70;76.60
74384;DHT22;62824;52.994;-3.936;2023-04-19T00:12:19;7.70;79.30
74384;DHT22;62824;52.994;-3.936;2023-04-19T00:14:45;7.70;80.40
74384;DHT22;62824;52.994;-3.936;2023-04-19T00:17:11;7.60;84.10
74384;DHT22;62824;52.994;-3.936;2023-04-19T00:19:37;7.70;84.40
74384;DHT22;62824;52.994;-3.936;2023-04-19T00:22:02;7.80;84.80
74384;DHT22;62824;52.994;-3.936;2023-04-19T00:24:28;7.70;84.90
74384;DHT22;62824;52.994;-3.936;2023-04-19T00:26:54;7.90;83.90
74384;DHT22;62824;52.994;-3.936;2023-04-19T00:29:20;7.90;84.20
74384;DHT22;62824;52.994;-3.936;2023-04-19T00:31:45;7.70;87.00
74384;DHT22;62824;52.994;-3.936;2023-04-19T00:34:11;7.70;87.60
74384;DHT22;62824;52.994;-3.936;2023-04-19T00:36:37;7.90;86.10
74384;DHT22;62824;52.994;-3.936;2023-04-19T00:39:03;7.80;87.20
74384;DHT22;62824;52.994;-3.936;2023-04-19T00:41:28;7.80;87.50
74384;DHT22;62824;52.994;-3.936;2023-04-19T00:43:54;7.90;88.20
74384;DHT22;62824;52.994;-3.936;2023-04-19T00:46:21;8.00;87.20
74384;DHT22;62824;52.994;-3.936;2023-04-19T00:48:48;7.90;88.30
74384;DHT22;62824;52.994;-3.936;2023-04-19T00:51:14;7.70;90.60
74384;DHT22;62824;52.994;-3.936;2023-04-19T00:53:40;7.70;90.70
74384;DHT22;62824;52.994;-3.936;2023-04-19T00:56:07;7.70;91.00
74384;DHT22;62824;52.994;-3.936;2023-04-19T00:58:34;7.70;91.60
74384;DHT22;62824;52.994;-3.936;2023-04-19T01:01:00;7.70;92.50
74384;DHT22;62824;52.994;-3.936;2023-04-19T01:03:26;7.70;92.50
74384;DHT22;62824;52.994;-3.936;2023-04-19T01:05:54;7.80;91.50
74384;DHT22;62824;52.994;-3.936;2023-04-19T01:08:20;7.80;92.60
74384;DHT22;62824;52.994;-3.936;2023-04-19T01:10:45;7.70;92.90
74384;DHT22;62824;52.994;-3.936;2023-04-19T01:13:11;7.50;94.20
74384;DHT22;62824;52.994;-3.936;2023-04-19T01:15:37;7.50;95.50
74384;DHT22;62824;52.994;-3.936;2023-04-19T01:18:03;7.40;96.70
74384;DHT22;62824;52.994;-3.936;2023-04-19T01:20:29;7.40;98.20
74384;DHT22;62824;52.994;-3.936;2023-04-19T01:22:54;7.50;99.90
74384;DHT22;62824;52.994;-3.936;2023-04-19T01:25:20;7.40;99.90
74384;DHT22;62824;52.994;-3.936;2023-04-19T01:27:46;7.40;99.90
74384;DHT22;62824;52.994;-3.936;2023-04-19T01:30:12;7.30;99.90
74384;DHT22;62824;52.994;-3.936;2023-04-19T01:32:38;7.30;99.90
74384;DHT22;62824;52.994;-3.936;2023-04-19T01:35:04;7.30;99.90
74384;DHT22;62824;52.994;-3.936;2023-04-19T01:37:33;7.30;99.90
74384;DHT22;62824;52.994;-3.936;2023-04-19T01:39:59;7.30;99.90
74384;DHT22;62824;52.994;-3.936;2023-04-19T01:42:25;7.30;99.90
74384;DHT22;62824;52.994;-3.936;2023-04-19T01:44:51;7.40;99.90
74384;DHT22;62824;52.994;-3.936;2023-04-19T01:47:17;7.40;99.90
74384;DHT22;62824;52.994;-3.936;2023-04-19T01:49:42;7.50;99.90
74384;DHT22;62824;52.994;-3.936;2023-04-19T01:52:08;7.40;99.90
74384;DHT22;62824;52.994;-3.936;2023-04-19T01:54:34;7.40;99.90
74384;DHT22;62824;52.994;-3.936;2023-04-19T01:57:00;7.40;99.90
74384;DHT22;62824;52.994;-3.936;2023-04-19T01:59:25;7.50;99.90
74384;DHT22;62824;52.994;-3.936;2023-04-19T02:01:51;7.40;99.90
74384;DHT22;62824;52.994;-3.936;2023-04-19T02:04:19;7.40;99.90
74384;DHT22;62824;52.994;-3.936;2023-04-19T02:06:45;7.50;99.90
74384;DHT22;62824;52.994;-3.936;2023-04-19T02:09:11;7.40;99.90
74384;DHT22;62824;52.994;-3.936;2023-04-19T02:11:37;7.40;99.90
74384;DHT22;62824;52.994;-3.936;2023-04-19T02:14:03;7.30;99.90
74384;DHT22;62824;52.994;-3.936;2023-04-19T02:16:29;7.30;99.90
74384;DHT22;62824;52.994;-3.936;2023-04-19T02:18:55;7.30;99.90
74384;DHT22;62824;52.994;-3.936;2023-04-19T02:21:20;7.40;99.90
74384;DHT22;62824;52.994;-3.936;2023-04-19T02:23:46;7.30;99.90
74384;DHT22;62824;52.994;-3.936;2023-04-19T02:26:12;7.30;99.90
74384;DHT22;62824;52.994;-3.936;2023-04-19T02:28:37;7.30;99.90
74384;DHT22;62824;52.994;-3.936;2023-04-19T02:31:06;7.30;99.90
74384;DHT22;62824;52.994;-3.936;2023-04-19T02:33:32;7.30;99.90
74384;DHT22;62824;52.994;-3.936;2023-04-19T02:35:58;7.30;99.90
74384;DHT22;62824;52.994;-3.936;2023-04-19T02:38:24;7.30;99.90
74384;DHT22;62824;52.994;-3.936;2023-04-19T02:40:50;7.30;99.90
74384;DHT22;62824;52.994;-3.936;2023-04-19T02:43:15;7.30;99.90
74384;DHT22;62824;52.994;-3.936;2023-04-19T02:45:41;7.30;99.90
74384;DHT22;62824;52.994;-3.936;2023-04-19T02:48:07;7.20;99.90
74384;DHT22;62824;52.994;-3.936;2023-04-19T02:50:36;7.30;99.90
74384;DHT22;62824;52.994;-3.936;2023-04-19T02:53:02;7.20;99.90
74384;DHT22;62824;52.994;-3.936;2023-04-19T02:55:28;7.20;99.90
74384;DHT22;62824;52.994;-3.936;2023-04-19T02:57:54;7.20;99.90
74384;DHT22;62824;52.994;-3.936;2023-04-19T03:00:19;7.20;99.90
74384;DHT22;62824;52.994;-3.936;2023-04-19T03:02:45;7.10;99.90
74384;DHT22;62824;52.994;-3.936;2023-04-19T03:05:11;7.10;99.90
74384;DHT22;62824;52.994;-3.936;2023-04-19T03:07:37;7.20;99.90
74384;DHT22;62824;52.994;-3.936;2023-04-19T03:10:03;7.10;99.90
74384;DHT22;62824;52.994;-3.936;2023-04-19T03:12:28;7.20;99.90
74384;DHT22;62824;52.994;-3.936;2023-04-19T03:14:54;7.30;99.90
74384;DHT22;62824;52.994;-3.936;2023-04-19T03:17:20;7.40;99.90
74384;DHT22;62824;52.994;-3.936;2023-04-19T03:19:46;7.50;99.90
74384;DHT22;62824;52.994;-3.936;2023-04-19T03:22:11;7.40;99.90
74384;DHT22;62824;52.994;-3.936;2023-04-19T03:24:37;7.50;99.90
74384;DHT22;62824;52.994;-3.936;2023-04-19T03:27:03;7.60;99.90
74384;DHT22;62824;52.994;-3.936;2023-04-19T03:29:29;7.50;99.90
74384;DHT22;62824;52.994;-3.936;2023-04-19T03:31:55;7.30;99.90
74384;DHT22;62824;52.994;-3.936;2023-04-19T03:34:20;7.30;99.90
74384;DHT22;62824;52.994;-3.936;2023-04-19T03:36:46;7.40;99.90
74384;DHT22;62824;52.994;-3.936;2023-04-19T03:39:12;7.30;99.90
74384;DHT22;62824;52.994;-3.936;2023-04-19T03:41:39;7.30;99.90
74384;DHT22;62824;52.994;-3.936;2023-04-19T03:44:05;7.40;99.90
74384;DHT22;62824;52.994;-3.936;2023-04-19T03:46:30;7.30;99.90
74384;DHT22;62824;52.994;-3.936;2023-04-19T03:48:57;7.20;99.90
74384;DHT22;62824;52.994;-3.936;2023-04-19T03:51:22;7.20;99.90
74384;DHT22;62824;52.994;-3.936;2023-04-19T03:53:48;7.30;99.90
74384;DHT22;62824;52.994;-3.936;2023-04-19T03:56:14;7.20;99.90
74384;DHT22;62824;52.994;-3.936;2023-04-19T03:58:39;7.30;99.90
74384;DHT22;62824;52.994;-3.936;2023-04-19T04:01:05;7.20;99.90
74384;DHT22;62824;52.994;-3.936;2023-04-19T04:03:33;7.20;99.90
74384;DHT22;62824;52.994;-3.936;2023-04-19T04:05:59;7.30;99.90
74384;DHT22;62824;52.994;-3.936;2023-04-19T04:08:25;7.20;99.90
74384;DHT22;62824;52.994;-3.936;2023-04-19T04:10:51;7.10;99.90
74384;DHT22;62824;52.994;-3.936;2023-04-19T04:13:17;7.10;99.90
74384;DHT22;62824;52.994;-3.936;2023-04-19T04:15:42;7.10;99.90
74384;DHT22;62824;52.994;-3.936;2023-04-19T04:18:08;7.10;99.90
74384;DHT22;62824;52.994;-3.936;2023-04-19T04:20:34;7.10;99.90
74384;DHT22;62824;52.994;-3.936;2023-04-19T04:23:01;7.10;99.90
74384;DHT22;62824;52.994;-3.936;2023-04-19T04:25:26;7.10;99.90
74384;DHT22;62824;52.994;-3.936;2023-04-19T04:27:53;7.20;99.90
74384;DHT22;62824;52.994;-3.936;2023-04-19T04:30:19;7.20;99.90
74384;DHT22;62824;52.994;-3.936;2023-04-19T04:32:44;7.20;99.90
74384;DHT22;62824;52.994;-3.936;2023-04-19T04:35:11;7.10;99.90
74384;DHT22;62824;52.994;-3.936;2023-04-19T04:37:37;7.20;99.90
74384;DHT22;62824;52.994;-3.936;2023-04-19T04:40:05;7.20;99.90
74384;DHT22;62824;52.994;-3.936;2023-04-19T04:42:31;7.10;99.90
74384;DHT22;62824;52.994;-3.936;2023-04-19T04:44:57;7.10;99.90
74384;DHT22;62824;52.994;-3.936;2023-04-19T04:47:30;7.20;99.90
74384;DHT22;62824;52.994;-3.936;2023-04-19T04:49:57;7.20;99.90
74384;DHT22;62824;52.994;-3.936;2023-04-19T04:52:22;7.20;99.90
74384;DHT22;62824;52.994;-3.936;2023-04-19T04:54:48;7.20;99.90
74384;DHT22;62824;52.994;-3.936;2023-04-19T04:57:14;7.20;99.90
74384;DHT22;62824;52.994;-3.936;2023-04-19T04:59:40;7.20;99.90
74384;DHT22;62824;52.994;-3.936;2023-04-19T05:02:06;7.20;99.90
74384;DHT22;62824;52.994;-3.936;2023-04-19T05:04:31;7.20;99.90
74384;DHT22;62824;52.994;-3.936;2023-04-19T05:06:57;7.20;99.90
74384;DHT22;62824;52.994;-3.936;2023-04-19T05:09:23;7.20;99.90
74384;DHT22;62824;52.994;-3.936;2023-04-19T05:11:49;7.20;99.90
74384;DHT22;62824;52.994;-3.936;2023-04-19T05:14:14;7.20;99.90
74384;DHT22;62824;52.994;-3.936;2023-04-19T05:16:40;7.20;99.90
74384;DHT22;62824;52.994;-3.936;2023-04-19T05:19:06;7.20;99.90
74384;DHT22;62824;52.994;-3.936;2023-04-19T05:21:34;7.20;99.90
74384;DHT22;62824;52.994;-3.936;2023-04-19T05:24:00;7.30;99.90
74384;DHT22;62824;52.994;-3.936;2023-04-19T05:26:26;7.20;99.90
74384;DHT22;62824;52.994;-3.936;2023-04-19T05:28:51;7.20;99.90
74384;DHT22;62824;52.994;-3.936;2023-04-19T05:31:17;7.20;99.90
74384;DHT22;62824;52.994;-3.936;2023-04-19T05:33:45;7.30;99.90
74384;DHT22;62824;52.994;-3.936;2023-04-19T05:36:11;7.20;99.90
74384;DHT22;62824;52.994;-3.936;2023-04-19T05:38:37;7.30;99.90
74384;DHT22;62824;52.994;-3.936;2023-04-19T05:41:03;7.30;99.90
74384;DHT22;62824;52.994;-3.936;2023-04-19T05:43:29;7.30;99.90
74384;DHT22;62824;52.994;-3.936;2023-04-19T05:45:55;7.30;99.90
74384;DHT22;62824;52.994;-3.936;2023-04-19T05:48:21;7.40;99.90
74384;DHT22;62824;52.994;-3.936;2023-04-19T05:50:47;7.30;99.90
74384;DHT22;62824;52.994;-3.936;2023-04-19T05:53:13;7.20;99.90
74384;DHT22;62824;52.994;-3.936;2023-04-19T05:55:39;7.20;99.90
74384;DHT22;62824;52.994;-3.936;2023-04-19T05:58:05;7.20;99.90
74384;DHT22;62824;52.994;-3.936;2023-04-19T06:00:30;7.20;99.90
74384;DHT22;62824;52.994;-3.936;2023-04-19T06:02:56;7.20;99.90
74384;DHT22;62824;52.994;-3.936;2023-04-19T06:05:24;7.30;99.90
74384;DHT22;62824;52.994;-3.936;2023-04-19T06:07:49;7.20;99.90
74384;DHT22;62824;52.994;-3.936;2023-04-19T06:10:16;7.20;99.90
74384;DHT22;62824;52.994;-3.936;2023-04-19T06:12:41;7.30;99.90
74384;DHT22;62824;52.994;-3.936;2023-04-19T06:15:07;7.30;99.90
74384;DHT22;62824;52.994;-3.936;2023-04-19T06:17:33;7.30;99.90
74384;DHT22;62824;52.994;-3.936;2023-04-19T06:19:59;7.30;99.90
74384;DHT22;62824;52.994;-3.936;2023-04-19T06:22:25;7.30;99.90
74384;DHT22;62824;52.994;-3.936;2023-04-19T06:24:51;7.30;99.90
74384;DHT22;62824;52.994;-3.936;2023-04-19T06:27:17;7.30;99.90
74384;DHT22;62824;52.994;-3.936;2023-04-19T06:29:42;7.40;99.90
74384;DHT22;62824;52.994;-3.936;2023-04-19T06:32:10;7.40;99.90
74384;DHT22;62824;52.994;-3.936;2023-04-19T06:34:36;7.40;99.90
74384;DHT22;62824;52.994;-3.936;2023-04-19T06:37:01;7.40;99.90
74384;DHT22;62824;52.994;-3.936;2023-04-19T06:39:27;7.50;99.90
74384;DHT22;62824;52.994;-3.936;2023-04-19T06:41:53;7.60;99.90
74384;DHT22;62824;52.994;-3.936;2023-04-19T06:44:19;7.60;99.90
74384;DHT22;62824;52.994;-3.936;2023-04-19T06:46:44;7.60;99.90
74384;DHT22;62824;52.994;-3.936;2023-04-19T06:49:10;7.60;99.90
74384;DHT22;62824;52.994;-3.936;2023-04-19T06:51:38;7.60;99.90
74384;DHT22;62824;52.994;-3.936;2023-04-19T06:54:04;7.60;99.90
74384;DHT22;62824;52.994;-3.936;2023-04-19T06:56:45;7.60;99.90
74384;DHT22;62824;52.994;-3.936;2023-04-19T06:59:16;7.60;99.90
74384;DHT22;62824;52.994;-3.936;2023-04-19T07:01:43;7.70;99.90
74384;DHT22;62824;52.994;-3.936;2023-04-19T07:04:09;8.10;99.90
74384;DHT22;62824;52.994;-3.936;2023-04-19T07:06:36;8.40;99.90
74384;DHT22;62824;52.994;-3.936;2023-04-19T07:09:03;8.30;99.90
74384;DHT22;62824;52.994;-3.936;2023-04-19T07:11:30;8.40;99.90
74384;DHT22;62824;52.994;-3.936;2023-04-19T07:13:56;8.50;99.90
74384;DHT22;62824;52.994;-3.936;2023-04-19T07:16:22;8.80;99.90
74384;DHT22;62824;52.994;-3.936;2023-04-19T07:18:48;8.90;99.90
74384;DHT22;62824;52.994;-3.936;2023-04-19T07:21:14;9.20;99.90
74384;DHT22;62824;52.994;-3.936;2023-04-19T07:23:40;9.40;99.90
74384;DHT22;62824;52.994;-3.936;2023-04-19T07:26:06;9.40;99.90
74384;DHT22;62824;52.994;-3.936;2023-04-19T07:28:32;9.40;99.90
74384;DHT22;62824;52.994;-3.936;2023-04-19T07:30:58;9.40;99.90
74384;DHT22;62824;52.994;-3.936;2023-04-19T07:33:26;9.70;99.90
74384;DHT22;62824;52.994;-3.936;2023-04-19T07:35:52;9.80;99.90
74384;DHT22;62824;52.994;-3.936;2023-04-19T07:38:18;9.40;99.90
74384;DHT22;62824;52.994;-3.936;2023-04-19T07:40:44;9.40;99.90
74384;DHT22;62824;52.994;-3.936;2023-04-19T07:43:10;9.40;99.90
74384;DHT22;62824;52.994;-3.936;2023-04-19T07:45:36;9.10;99.90
74384;DHT22;62824;52.994;-3.936;2023-04-19T07:48:02;8.90;99.90
74384;DHT22;62824;52.994;-3.936;2023-04-19T07:50:28;8.80;99.90
74384;DHT22;62824;52.994;-3.936;2023-04-19T07:52:53;9.20;99.90
74384;DHT22;62824;52.994;-3.936;2023-04-19T07:55:19;9.40;99.90
74384;DHT22;62824;52.994;-3.936;2023-04-19T07:57:45;9.40;99.90
74384;DHT22;62824;52.994;-3.936;2023-04-19T08:00:14;10.10;99.90
74384;DHT22;62824;52.994;-3.936;2023-04-19T08:02:46;10.20;99.90
74384;DHT22;62824;52.994;-3.936;2023-04-19T08:05:16;10.60;99.90
74384;DHT22;62824;52.994;-3.936;2023-04-19T08:07:42;10.60;99.90
74384;DHT22;62824;52.994;-3.936;2023-04-19T08:10:09;10.40;99.90
74384;DHT22;62824;52.994;-3.936;2023-04-19T08:12:35;10.30;99.90
74384;DHT22;62824;52.994;-3.936;2023-04-19T08:15:05;10.40;99.90
74384;DHT22;62824;52.994;-3.936;2023-04-19T08:17:32;10.30;99.90
74384;DHT22;62824;52.994;-3.936;2023-04-19T08:19:58;10.30;99.90
74384;DHT22;62824;52.994;-3.936;2023-04-19T08:22:24;10.30;99.90
74384;DHT22;62824;52.994;-3.936;2023-04-19T08:24:50;10.40;99.90
74384;DHT22;62824;52.994;-3.936;2023-04-19T08:27:16;10.60;99.90
74384;DHT22;62824;52.994;-3.936;2023-04-19T08:29:43;10.60;99.90
74384;DHT22;62824;52.994;-3.936;2023-04-19T08:32:09;10.70;99.90
74384;DHT22;62824;52.994;-3.936;2023-04-19T08:34:36;10.70;99.90
74384;DHT22;62824;52.994;-3.936;2023-04-19T08:37:02;10.80;99.90
74384;DHT22;62824;52.994;-3.936;2023-04-19T08:39:31;10.70;99.90
74384;DHT22;62824;52.994;-3.936;2023-04-19T08:42:05;10.60;99.90
74384;DHT22;62824;52.994;-3.936;2023-04-19T08:44:32;10.50;99.90
74384;DHT22;62824;52.994;-3.936;2023-04-19T08:46:58;10.70;99.90
74384;DHT22;62824;52.994;-3.936;2023-04-19T08:49:25;10.60;99.90
74384;DHT22;62824;52.994;-3.936;2023-04-19T08:51:52;10.50;99.90
74384;DHT22;62824;52.994;-3.936;2023-04-19T08:54:19;10.50;99.90
74384;DHT22;62824;52.994;-3.936;2023-04-19T08:56:46;10.70;99.90
74384;DHT22;62824;52.994;-3.936;2023-04-19T08:59:12;10.70;99.90
74384;DHT22;62824;52.994;-3.936;2023-04-19T09:01:39;10.60;99.90
74384;DHT22;62824;52.994;-3.936;2023-04-19T09:04:08;10.70;99.90
74384;DHT22;62824;52.994;-3.936;2023-04-19T09:06:38;10.70;99.90
74384;DHT22;62824;52.994;-3.936;2023-04-19T09:11:38;10.90;99.90
74384;DHT22;62824;52.994;-3.936;2023-04-19T09:14:12;10.90;99.90
74384;DHT22;62824;52.994;-3.936;2023-04-19T09:16:38;10.80;99.90
74384;DHT22;62824;52.994;-3.936;2023-04-19T09:19:05;10.70;99.90
74384;DHT22;62824;52.994;-3.936;2023-04-19T09:21:32;11.00;99.90
74384;DHT22;62824;52.994;-3.936;2023-04-19T09:23:59;11.00;99.90
74384;DHT22;62824;52.994;-3.936;2023-04-19T09:26:26;11.00;99.90
74384;DHT22;62824;52.994;-3.936;2023-04-19T09:28:58;11.00;99.90
74384;DHT22;62824;52.994;-3.936;2023-04-19T09:31:30;10.80;99.90
74384;DHT22;62824;52.994;-3.936;2023-04-19T09:33:56;10.80;99.90
74384;DHT22;62824;52.994;-3.936;2023-04-19T09:36:30;11.00;99.90
74384;DHT22;62824;52.994;-3.936;2023-04-19T09:38:57;10.90;99.90
74384;DHT22;62824;52.994;-3.936;2023-04-19T09:41:24;10.90;99.90
74384;DHT22;62824;52.994;-3.936;2023-04-19T09:43:50;11.10;99.90
74384;DHT22;62824;52.994;-3.936;2023-04-19T09:46:30;11.30;99.90
74384;DHT22;62824;52.994;-3.936;2023-04-19T09:49:22;11.50;99.90
74384;DHT22;62824;52.994;-3.936;2023-04-19T09:51:53;11.50;99.90
74384;DHT22;62824;52.994;-3.936;2023-04-19T09:54:21;11.80;99.70
74384;DHT22;62824;52.994;-3.936;2023-04-19T09:56:48;12.00;97.60
74384;DHT22;62824;52.994;-3.936;2023-04-19T09:59:14;12.30;95.50
74384;DHT22;62824;52.994;-3.936;2023-04-19T10:01:53;12.60;92.80
74384;DHT22;62824;52.994;-3.936;2023-04-19T10:04:20;12.70;90.40
74384;DHT22;62824;52.994;-3.936;2023-04-19T10:06:51;12.70;90.40
74384;DHT22;62824;52.994;-3.936;2023-04-19T10:09:18;12.90;88.80
74384;DHT22;62824;52.994;-3.936;2023-04-19T10:11:50;13.00;86.40
74384;DHT22;62824;52.994;-3.936;2023-04-19T10:14:20;13.00;83.80
74384;DHT22;62824;52.994;-3.936;2023-04-19T10:16:46;13.20;80.70
74384;DHT22;62824;52.994;-3.936;2023-04-19T10:19:15;12.90;84.50
74384;DHT22;62824;52.994;-3.936;2023-04-19T10:21:45;12.80;83.80
74384;DHT22;62824;52.994;-3.936;2023-04-19T10:24:13;12.70;85.40
74384;DHT22;62824;52.994;-3.936;2023-04-19T10:30:01;12.80;84.10
74384;DHT22;62824;52.994;-3.936;2023-04-19T10:32:40;13.50;76.30
74384;DHT22;62824;52.994;-3.936;2023-04-19T10:37:33;14.10;68.20
74384;DHT22;62824;52.994;-3.936;2023-04-19T10:39:59;14.10;62.90
74384;DHT22;62824;52.994;-3.936;2023-04-19T10:45:33;14.10;63.00
74384;DHT22;62824;52.994;-3.936;2023-04-19T10:48:02;14.50;57.50
74384;DHT22;62824;52.994;-3.936;2023-04-19T10:50:28;14.60;55.60
74384;DHT22;62824;52.994;-3.936;2023-04-19T10:52:54;14.50;56.70
74384;DHT22;62824;52.994;-3.936;2023-04-19T10:55:20;15.30;51.50
74384;DHT22;62824;52.994;-3.936;2023-04-19T10:58:05;15.40;47.20
74384;DHT22;62824;52.994;-3.936;2023-04-19T11:00:32;15.40;46.70
74384;DHT22;62824;52.994;-3.936;2023-04-19T11:06:16;16.20;42.50
74384;DHT22;62824;52.994;-3.936;2023-04-19T11:08:44;16.50;37.30
74384;DHT22;62824;52.994;-3.936;2023-04-19T11:11:12;15.90;42.50
74384;DHT22;62824;52.994;-3.936;2023-04-19T11:13:42;15.90;41.70
74384;DHT22;62824;52.994;-3.936;2023-04-19T11:16:08;16.10;41.80
74384;DHT22;62824;52.994;-3.936;2023-04-19T11:18:34;16.50;38.80
74384;DHT22;62824;52.994;-3.936;2023-04-19T11:21:00;16.60;38.10
74384;DHT22;62824;52.994;-3.936;2023-04-19T11:23:26;16.90;36.70
74384;DHT22;62824;52.994;-3.936;2023-04-19T11:25:55;16.70;37.90
74384;DHT22;62824;52.994;-3.936;2023-04-19T11:28:21;17.10;36.40
74384;DHT22;62824;52.994;-3.936;2023-04-19T11:30:48;17.10;35.70
74384;DHT22;62824;52.994;-3.936;2023-04-19T11:33:18;16.90;37.00
74384;DHT22;62824;52.994;-3.936;2023-04-19T11:35:49;17.20;35.10
74384;DHT22;62824;52.994;-3.936;2023-04-19T11:38:15;16.40;36.50
74384;DHT22;62824;52.994;-3.936;2023-04-19T11:40:41;16.70;36.50
74384;DHT22;62824;52.994;-3.936;2023-04-19T11:43:07;16.80;36.70
74384;DHT22;62824;52.994;-3.936;2023-04-19T11:45:34;16.10;37.10
74384;DHT22;62824;52.994;-3.936;2023-04-19T11:48:02;16.30;37.40
74384;DHT22;62824;52.994;-3.936;2023-04-19T11:53:16;16.80;37.30
74384;DHT22;62824;52.994;-3.936;2023-04-19T11:55:50;16.70;37.10
74384;DHT22;62824;52.994;-3.936;2023-04-19T12:01:12;15.50;43.20
74384;DHT22;62824;52.994;-3.936;2023-04-19T12:03:48;15.60;43.50
74384;DHT22;62824;52.994;-3.936;2023-04-19T12:06:16;15.60;44.30
74384;DHT22;62824;52.994;-3.936;2023-04-19T12:08:45;16.00;42.10
74384;DHT22;62824;52.994;-3.936;2023-04-19T12:11:12;16.00;41.70
74384;DHT22;62824;52.994;-3.936;2023-04-19T12:13:38;16.20;39.70
74384;DHT22;62824;52.994;-3.936;2023-04-19T12:16:09;16.60;40.40
74384;DHT22;62824;52.994;-3.936;2023-04-19T12:18:49;17.10;38.40
74384;DHT22;62824;52.994;-3.936;2023-04-19T12:21:25;17.50;36.30
74384;DHT22;62824;52.994;-3.936;2023-04-19T12:23:57;17.60;35.20
74384;DHT22;62824;52.994;-3.936;2023-04-19T12:26:24;18.00;33.30
74384;DHT22;62824;52.994;-3.936;2023-04-19T12:28:50;19.00;30.30
74384;DHT22;62824;52.994;-3.936;2023-04-19T12:31:16;18.30;30.50
74384;DHT22;62824;52.994;-3.936;2023-04-19T12:33:41;18.40;31.00
74384;DHT22;62824;52.994;-3.936;2023-04-19T12:36:07;19.10;29.70
74384;DHT22;62824;52.994;-3.936;2023-04-19T12:38:33;19.40;28.20
74384;DHT22;62824;52.994;-3.936;2023-04-19T12:41:00;19.50;28.10
74384;DHT22;62824;52.994;-3.936;2023-04-19T12:43:26;19.10;26.70
74384;DHT22;62824;52.994;-3.936;2023-04-19T12:45:52;18.70;28.40
74384;DHT22;62824;52.994;-3.936;2023-04-19T12:48:18;18.50;29.80
74384;DHT22;62824;52.994;-3.936;2023-04-19T12:50:44;18.00;29.60
74384;DHT22;62824;52.994;-3.936;2023-04-19T12:53:10;17.80;31.00
74384;DHT22;62824;52.994;-3.936;2023-04-19T12:55:35;17.70;32.30
74384;DHT22;62824;52.994;-3.936;2023-04-19T12:58:01;17.60;32.20
74384;DHT22;62824;52.994;-3.936;2023-04-19T13:00:27;17.20;32.70
74384;DHT22;62824;52.994;-3.936;2023-04-19T13:02:54;16.90;33.10
74384;DHT22;62824;52.994;-3.936;2023-04-19T13:05:20;16.90;34.20
74384;DHT22;62824;52.994;-3.936;2023-04-19T13:07:46;17.20;34.10
74384;DHT22;62824;52.994;-3.936;2023-04-19T13:10:12;17.20;34.30
74384;DHT22;62824;52.994;-3.936;2023-04-19T13:12:38;17.00;34.50
74384;DHT22;62824;52.994;-3.936;2023-04-19T13:15:04;17.10;34.50
74384;DHT22;62824;52.994;-3.936;2023-04-19T13:17:30;17.10;34.40
74384;DHT22;62824;52.994;-3.936;2023-04-19T13:19:56;17.20;34.80
74384;DHT22;62824;52.994;-3.936;2023-04-19T13:22:22;16.90;36.10
74384;DHT22;62824;52.994;-3.936;2023-04-19T13:24:48;16.20;36.80
74384;DHT22;62824;52.994;-3.936;2023-04-19T13:27:13;15.60;41.10
74384;DHT22;62824;52.994;-3.936;2023-04-19T13:29:43;15.40;44.00
74384;DHT22;62824;52.994;-3.936;2023-04-19T13:32:19;15.30;44.20
74384;DHT22;62824;52.994;-3.936;2023-04-19T13:34:59;15.20;48.50
74384;DHT22;62824;52.994;-3.936;2023-04-19T13:37:25;15.20;47.40
74384;DHT22;62824;52.994;-3.936;2023-04-19T13:39:51;15.00;48.90
74384;DHT22;62824;52.994;-3.936;2023-04-19T13:42:17;14.70;54.00
74384;DHT22;62824;52.994;-3.936;2023-04-19T13:44:43;15.00;50.30
74384;DHT22;62824;52.994;-3.936;2023-04-19T13:47:09;15.00;50.60
74384;DHT22;62824;52.994;-3.936;2023-04-19T13:49:35;14.80;52.30
74384;DHT22;62824;52.994;-3.936;2023-04-19T13:52:01;14.80;54.60
74384;DHT22;62824;52.994;-3.936;2023-04-19T13:54:26;14.60;57.40
74384;DHT22;62824;52.994;-3.936;2023-04-19T13:56:52;14.80;56.30
74384;DHT22;62824;52.994;-3.936;2023-04-19T13:59:18;14.90;55.30
74384;DHT22;62824;52.994;-3.936;2023-04-19T14:04:27;14.80;53.30
74384;DHT22;62824;52.994;-3.936;2023-04-19T14:06:53;14.70;56.90
74384;DHT22;62824;52.994;-3.936;2023-04-19T14:09:19;14.80;56.40
74384;DHT22;62824;52.994;-3.936;2023-04-19T14:11:44;14.60;57.80
74384;DHT22;62824;52.994;-3.936;2023-04-19T14:14:11;14.40;62.00
74384;DHT22;62824;52.994;-3.936;2023-04-19T14:16:37;14.40;63.80
74384;DHT22;62824;52.994;-3.936;2023-04-19T14:19:03;14.70;61.80
74384;DHT22;62824;52.994;-3.936;2023-04-19T14:21:29;14.70;62.20
74384;DHT22;62824;52.994;-3.936;2023-04-19T14:23:56;14.50;63.70
74384;DHT22;62824;52.994;-3.936;2023-04-19T14:26:22;14.50;62.80
74384;DHT22;62824;52.994;-3.936;2023-04-19T14:28:48;14.40;62.60
74384;DHT22;62824;52.994;-3.936;2023-04-19T14:31:13;14.00;68.90
74384;DHT22;62824;52.994;-3.936;2023-04-19T14:33:39;13.80;74.70
74384;DHT22;62824;52.994;-3.936;2023-04-19T14:36:05;14.00;73.10
74384;DHT22;62824;52.994;-3.936;2023-04-19T14:38:31;14.30;66.00
74384;DHT22;62824;52.994;-3.936;2023-04-19T14:40:58;14.20;70.10
74384;DHT22;62824;52.994;-3.936;2023-04-19T14:43:24;14.30;70.30
74384;DHT22;62824;52.994;-3.936;2023-04-19T14:45:50;14.10;72.40
74384;DHT22;62824;52.994;-3.936;2023-04-19T14:48:17;14.10;72.40
74384;DHT22;62824;52.994;-3.936;2023-04-19T14:50:43;13.90;75.30
74384;DHT22;62824;52.994;-3.936;2023-04-19T14:53:09;14.00;76.00
74384;DHT22;62824;52.994;-3.936;2023-04-19T14:55:38;13.90;75.30
74384;DHT22;62824;52.994;-3.936;2023-04-19T14:58:04;13.90;76.70
74384;DHT22;62824;52.994;-3.936;2023-04-19T15:00:30;13.90;76.80
74384;DHT22;62824;52.994;-3.936;2023-04-19T15:02:56;13.80;75.80
74384;DHT22;62824;52.994;-3.936;2023-04-19T15:05:24;13.70;75.80
74384;DHT22;62824;52.994;-3.936;2023-04-19T15:07:50;13.90;76.40
74384;DHT22;62824;52.994;-3.936;2023-04-19T15:10:15;13.90;76.20
74384;DHT22;62824;52.994;-3.936;2023-04-19T15:12:41;14.20;73.40
74384;DHT22;62824;52.994;-3.936;2023-04-19T15:15:07;14.20;71.00
74384;DHT22;62824;52.994;-3.936;2023-04-19T15:17:33;14.30;71.10
74384;DHT22;62824;52.994;-3.936;2023-04-19T15:19:59;14.20;73.00
74384;DHT22;62824;52.994;-3.936;2023-04-19T15:22:28;14.10;73.70
74384;DHT22;62824;52.994;-3.936;2023-04-19T15:24:53;14.20;72.70
74384;DHT22;62824;52.994;-3.936;2023-04-19T15:27:19;14.10;71.00
74384;DHT22;62824;52.994;-3.936;2023-04-19T15:29:46;14.00;71.70
74384;DHT22;62824;52.994;-3.936;2023-04-19T15:32:12;14.10;70.40
74384;DHT22;62824;52.994;-3.936;2023-04-19T15:34:38;14.20;69.40
74384;DHT22;62824;52.994;-3.936;2023-04-19T15:37:04;14.30;67.30
74384;DHT22;62824;52.994;-3.936;2023-04-19T15:39:31;14.30;69.40
74384;DHT22;62824;52.994;-3.936;2023-04-19T15:41:56;14.50;66.90